Central Sierra Snow Lab Weather observations

Data are for 10 minute period ending at time listed.
 Day   Time    Incoming  Reflected   Ave.   Ave.    Ave.    Vector  Max.    Ave.    Total    Snow   
  of    of      Solar     Solar      Air    Rel.    Wind    Wind    Wind   Baro.   Precip.   Depth  
Year   Day     Radiation Radiation   Temp.  Humid.  Speed   Dir.    Gust   Press.                   
2016   (PST)    Kw/m2     Kw/m2       F       %      mph     deg.    mph     mb.     in.      in.   
----------------------------------------------------------------------------------------------------
  38    9:00    0.037     999.000     37.7     45     4.4      56    13.9   801.90    6.63   57.10  
  38    9:10    0.248     999.000     37.9     45     3.7      64    11.6   802.00    6.62   57.10  
  38    9:20    0.349     999.000     38.7     43     4.9     123    11.4   801.80    6.62   56.90  
  38    9:30    0.377     999.000     40.6     38     4.9      89    12.2   801.60    6.63   56.60  
  38    9:40    0.402     999.000     41.3     38     4.3      50    11.1   801.50    6.62   56.40  
  38    9:50    0.427     999.000     41.7     39     3.2      30    10.2   801.50    6.62   56.20  
  38   10:00    0.450     999.000     42.5     38     4.5      45    12.2   801.70    6.62   56.20  
  38   10:10    0.475     999.000     43.7     36     3.4      47     8.2   801.90    6.62   56.10  
  38   10:20    0.505     999.000     44.3     36     4.1      60    12.5   802.00    6.62   56.00  
  38   10:30    0.528     999.000     44.9     36     4.1      64     9.8   802.10    6.62   55.90  
  38   10:40    0.545     999.000     45.2     35     3.9      66     9.6   802.20    6.62   55.70  
  38   10:50    0.553     999.000     45.5     34     5.1      82    12.5   802.30    6.62   55.60  
  38   11:00    0.560     999.000     45.3     34     4.7     100    11.2   802.30    6.62   55.40  
  38   11:10    0.573     999.000     46.1     33     4.3     105    11.2   802.30    6.62   55.50  
  38   11:20    0.584     999.000     46.1     32     5.8      88    13.6   802.20    6.62   55.60  
  38   11:30    0.595     999.000     45.9     31     5.4      94    12.5   802.10    6.62   55.60  
  38   11:40    0.603     999.000     46.1     30     6.8      89    16.4   802.00    6.62   55.60  
  38   11:50    0.610     999.000     46.2     30     6.1      82    16.2   801.90    6.62   55.60  
  38   12:00    0.616     999.000     46.5     30     5.5      72    14.4   801.80    6.62   55.60  
  38   12:10    0.621     999.000     47.2     30     4.8      76    15.7   801.60    6.62   55.50  
  38   12:20    0.625     999.000     47.8     30     4.6      85    12.2   801.50    6.62   55.30  
  38   12:30    0.625     999.000     48.1     31     6.0      96    14.2   801.30    6.62   55.40  
  38   12:40    0.622     999.000     48.1     31     4.6      83    11.6   801.20    6.62   55.60  
  38   12:50    0.620     999.000     47.8     32     5.9      84    15.7   801.00    6.62   55.40  
  38   13:00    0.615     999.000     47.8     33     5.7      99    13.1   800.80    6.62   55.10  
  38   13:10    0.608     999.000     48.0     33     5.5      78    12.7   800.70    6.62   55.00  
  38   13:20    0.599     999.000     48.2     33     4.6      87    12.6   800.60    6.62   54.90  
  38   13:30    0.589     999.000     48.3     34     5.7      95    14.5   800.50    6.62   55.10  
  38   13:40    0.577     999.000     48.0     34     6.0      98    16.5   800.50    6.62   54.80  
  38   13:50    0.563     999.000     47.7     34     6.6      88    15.5   800.50    6.62   54.70  
  38   14:00    0.548     999.000     48.0     33     5.9      72    19.4   800.40    6.62   54.80  
  38   14:10    0.530     999.000     48.2     33     5.5      63    15.7   800.50    6.62   54.50  
  38   14:20    0.512     999.000     48.4     33     4.6      71    13.0   800.60    6.62   54.80  
  38   14:30    0.493     999.000     48.4     33     5.2      86    13.7   800.60    6.62   54.30  
  38   14:40    0.471     999.000     48.1     34     4.9      66    15.5   800.80    6.62   54.50  
  38   14:50    0.407     999.000     47.7     34     5.2      74    14.1   800.70    6.62   54.60  
  38   15:00    0.219     999.000     47.6     35     5.8      63    12.8   800.80    6.61   54.50  
  38   15:10    0.118     999.000     47.5     36     4.7      51    12.8   800.70    6.62   54.50  
  38   15:20    0.138     999.000     47.2     36     4.0      51    12.1   800.70    6.61   54.30  
  38   15:30    0.065     999.000     46.9     36     4.9      52    13.2   800.80    6.62   89.20  
  38   15:40    0.044     999.000     46.4     37     4.6      74    14.5   800.90    6.62   54.50  
  38   15:50    0.049     999.000     45.8     38     4.6      64    16.1   800.90    6.62   54.50  
  38   16:00    0.032     999.000     45.2     40     4.2      45    15.5   801.00    6.62   54.60  
  38   16:10    0.038     999.000     44.8     42     4.2      69    13.6   801.10    6.62   54.70  
  38   16:20    0.059     999.000     44.3     43     4.4      53    11.8   801.10    6.62   54.70  
  38   16:30    0.046     999.000     43.6     45     3.7      68    11.1   801.10    6.62   54.80  
  38   16:40    0.030     999.000     42.9     46     4.2      87    11.7   801.10    6.62   54.90  
  38   16:50    0.030     999.000     42.7     46     3.5      73     9.0   801.20    6.63   54.90  
  38   17:00    0.023     999.000     42.4     47     4.2      80    10.8   801.30    6.62   54.90  
  38   17:10    0.013     999.000     41.5     50     3.9      94     8.6   801.40    6.62   54.90  
  38   17:20    0.007     999.000     40.7     51     2.9      78     6.8   801.40    6.62   55.00  
  38   17:30    0.004     999.000     40.0     53     4.0      58    10.6   801.50    6.63   55.00  
  38   17:40    0.002     999.000     39.4     54     4.1      52    10.4   801.60    6.62   55.00  
  38   17:50    0.001     999.000     38.9     55     4.1      53    11.3   801.60    6.63   54.90  
  38   18:00    0.000     999.000     38.7     56     4.0      59    10.0   801.70    6.62   55.00  
  38   18:10    0.000     999.000     38.3     56     3.9      52    11.4   801.70    6.62   54.90  
  38   18:20    0.000     999.000     38.2     57     3.4      32     8.5   801.90    6.63   54.90  
  38   18:30    0.000     999.000     37.9     58     3.5      51    10.1   801.90    6.62   54.90  
  38   18:40    0.000     999.000     37.6     58     4.5      62    13.1   801.90    6.63   54.80  
  38   18:50    0.000     999.000     37.5     58     3.8      80     9.7   802.00    6.63   54.90  
  38   19:00    0.000     999.000     37.5     58     3.9      65     8.9   802.10    6.62   55.00  
  38   19:10    0.000     999.000     37.6     57     3.9      54    12.6   802.20    6.63   54.90  
  38   19:20    0.000     999.000     37.5     57     3.3      49     9.2   802.10    6.62   54.90  
  38   19:30    0.000     999.000     37.4     57     3.3      63     8.5   802.10    6.62   55.00  
  38   19:40    0.000     999.000     37.7     56     4.2      40    11.3   802.10    6.62   54.90  
  38   19:50    0.000     999.000     37.9     54     5.1      46    13.0   802.10    6.62   54.90  
  38   20:00    0.000     999.000     37.8     54     4.8      43    13.2   802.00    6.62   54.90  
  38   20:10    0.000     999.000     37.7     54     4.6      41    12.9   802.00    6.62   54.80  
  38   20:20    0.000     999.000     37.6     54     4.0      43    13.0   802.00    6.62   54.80  
  38   20:30    0.000     999.000     37.4     54     3.8      48    10.9   801.90    6.62   54.80  
  38   20:40    0.000     999.000     37.4     54     4.4      34    11.2   801.90    6.62   54.80  
  38   20:50    0.000     999.000     37.4     53     4.6      39    10.9   802.00    6.62   54.80  
  38   21:00    0.000     999.000     37.4     54     4.7      41    12.3   802.00    6.62   54.90  
  38   21:10    0.000     999.000     37.3     54     5.0      42    12.5   802.10    6.62   54.80  
  38   21:20    0.000     999.000     37.1     56     4.7      39    11.6   802.00    6.62   54.90  
  38   21:30    0.000     999.000     36.9     56     5.1      40    11.4   801.90    6.62   54.90  
  38   21:40    0.000     999.000     36.7     56     4.3      53    14.2   801.90    6.62   54.80  
  38   21:50    0.000     999.000     36.7     56     5.3      48    14.5   801.90    6.62   54.80  
  38   22:00    0.000     999.000     36.8     55     4.7      44    13.8   801.90    6.62   54.80  
  38   22:10    0.000     999.000     36.6     56     5.5      58    17.0   802.00    6.62   54.80  
  38   22:20    0.000     999.000     36.4     56     4.4      44    11.1   802.00    6.62   54.80  
  38   22:30    0.000     999.000     36.4     57     5.7      56    16.9   802.10    6.62   54.80  
  38   22:40    0.000     999.000     36.1     59     4.5      43    12.8   802.10    6.62   54.80  
  38   22:50    0.000     999.000     35.8     61     4.7      49    11.6   802.10    6.62   54.80  
  38   23:00    0.000     999.000     35.6     61     4.8      47    11.2   802.10    6.62   54.80  
  38   23:10    0.000     999.000     35.6     62     4.7      46    14.2   802.20    6.62   54.80  
  38   23:20    0.000     999.000     35.8     61     5.5      50    13.4   802.20    6.62   54.80  
  38   23:30    0.000     999.000     35.7     61     4.7      45    11.9   802.10    6.62   54.80  
  38   23:40    0.000     999.000     35.5     62     5.0      31    10.3   802.10    6.62   54.70  
  38   23:50    0.000     999.000     35.4     62     4.7      44    11.4   802.10    6.62   54.70  
  39    0:00    0.000     999.000     35.3     62     4.6      48    10.8   802.10    6.62   54.70  
  39    0:10    0.000     999.000     35.4     62     4.9      22    15.1   802.10    6.62   54.70  
  39    0:20    0.000     999.000     35.4     63     5.3      29    13.7   802.10    6.62   54.70  
  39    0:30    0.000     999.000     35.1     64     5.1      34    16.1   802.10    6.62   54.70  
  39    0:40    0.000     999.000     34.8     65     4.6      41    13.0   802.10    6.63   54.70  
  39    0:50    0.000     999.000     34.3     67     4.9      48    13.8   802.10    6.62   54.70  
  39    1:00    0.000     999.000     34.4     67     5.3      43     9.8   802.00    6.62   54.60  
  39    1:10    0.000     999.000     34.5     67     5.0      36    11.5   802.00    6.63   54.60  
  39    1:20    0.000     999.000     34.6     66     5.0      36    12.2   802.00    6.63   54.60  
  39    1:30    0.000     999.000     34.7     66     4.8      38    13.5   802.00    6.62   54.60  
  39    1:40    0.000     999.000     34.7     66     4.5      42    13.0   802.00    6.62   54.60  
  39    1:50    0.000     999.000     34.7     66     4.0      44    11.4   802.10    6.63   54.60  
  39    2:00    0.000     999.000     34.7     65     3.9      32    10.4   802.10    6.63   54.60  
  39    2:10    0.000     999.000     34.7     65     5.0      18    12.7   802.10    6.63   54.60  
  39    2:20    0.000     999.000     34.9     64     4.2      29     9.9   802.10    6.63   54.60  
  39    2:30    0.000     999.000     34.9     64     3.7      41     8.6   802.00    6.63   54.70  
  39    2:40    0.000     999.000     35.1     64     4.4      29    10.2   802.00    6.62   54.60  
  39    2:50    0.000     999.000     35.0     64     3.7      29     8.8   801.90    6.63   54.60  
  39    3:00    0.000     999.000     35.3     62     4.3      38    14.5   801.90    6.62   54.70  
  39    3:10    0.000     999.000     35.5     62     4.4      24    10.8   801.70    6.62   54.70  
  39    3:20    0.000     999.000     35.6     61     3.9      31    10.8   801.60    6.63   54.60  
  39    3:30    0.000     999.000     35.6     61     3.4      36     9.2   801.60    6.63   54.60  
  39    3:40    0.000     999.000     36.2     59     4.0      28    11.7   801.60    6.63   54.70  
  39    3:50    0.000     999.000     36.4     58     3.3      30    10.6   801.60    6.62   54.70  
  39    4:00    0.000     999.000     36.6     58     4.2      33     9.2   801.60    6.63   54.70  
  39    4:10    0.000     999.000     37.1     56     4.9      33    11.8   801.50    6.62   54.70  
  39    4:20    0.000     999.000     37.6     54     4.2      25    10.6   801.40    6.63   54.70  
  39    4:30    0.000     999.000     37.8     53     4.5      34    10.3   801.40    6.62   54.70  
  39    4:40    0.000     999.000     37.9     52     3.9      26    12.3   801.50    6.63   54.70  
  39    4:50    0.000     999.000     38.1     52     4.0      27    14.0   801.50    6.62   54.70  
  39    5:00    0.000     999.000     38.2     52     3.0      25     9.7   801.60    6.62   54.70  
  39    5:10    0.000     999.000     38.1     52     3.2      25     8.9   801.60    6.62   54.70  
  39    5:20    0.000     999.000     38.0     51     3.6      36    10.2   801.60    6.63   54.70  
  39    5:30    0.000     999.000     37.9     52     3.5      34     7.6   801.70    6.62   54.60  
  39    5:40    0.000     999.000     37.7     52     3.7      23     9.1   801.80    6.62   54.70  
  39    5:50    0.000     999.000     37.9     51     3.0      17     8.1   802.00    6.63   54.70  
  39    6:00    0.000     999.000     38.0     51     2.1      20     6.9   802.10    6.62   54.70  
  39    6:10    0.000     999.000     36.7     56     1.5     236     3.4   802.30    6.63   54.40  
  39    6:20    0.000     999.000     35.4     58     2.2     196     4.1   802.40    6.62   54.50  
  39    6:30    0.000     999.000     34.4     60     1.2     160     2.9   802.70    6.62   54.50  
  39    6:40    0.000     999.000     34.0     61     1.6      71     2.8   802.80    6.62   54.50  
  39    6:50    0.000     999.000     32.7     64     1.7      38     3.8   802.80    6.62   54.50  
  39    7:00    0.001     999.000     32.0     65     1.5      50     3.4   802.90    6.63   54.50  
  39    7:10    0.003     999.000     31.2     68     1.7      36     2.8   803.00    6.62   54.40  
  39    7:20    0.005     999.000     30.5     70     2.0      38     3.6   803.00    6.62   54.50  
  39    7:30    0.007     999.000     30.0     71     2.3      30     4.0   803.10    6.62   54.40  
  39    7:40    0.009     999.000     29.5     73     2.7      29     4.6   803.10    6.63   54.30  
  39    7:50    0.010     999.000     29.2     73     3.0      30     4.3   803.10    6.62   54.40  
  39    8:00    0.011     999.000     28.9     74     2.9      31     4.3   803.20    6.62   54.30  
  39    8:10    0.013     999.000     29.2     73     1.7      40     2.8   803.20    6.62   54.30  
  39    8:20    0.015     999.000     30.3     70     1.8      54     3.8   803.20    6.62   54.30  
  39    8:30    0.018     999.000     31.0     68     1.7      49     2.6   803.30    6.62   54.40  
  39    8:40    0.034     999.000     31.7     66     1.6      52     3.5   803.30    6.62   54.30  
  39    8:50    0.023     999.000     32.6     65     0.9      73     2.4   803.30    6.62   54.40  

Return to Central Sierra Snow Lab graphs page.


Western Regional Climate Center,wrcc@dri.edu